This is the latest recevied weather packets stored in our database for station/object W4HIX-2. If no packets are shown the sender has not sent any weather packets the latest 10 day(s).
| Time | Temp. | Humidity | Pressure | Rain* | Wind** | Luminosity | Snow |
|---|---|---|---|---|---|---|---|
| 1777380617 | 21.67° C | 88% | 1019.7 hPa | 0 mm | - | - | - |
| 1777377616 | 20° C | 94% | 1019.1 hPa | 0 mm | - | - | - |
| 1777375216 | 19.44° C | 94% | 1018.8 hPa | 0 mm | - | - | - |
| 1777374016 | 19.44° C | 94% | 1018.4 hPa | 0 mm | - | - | - |
| 1777372237 | 20° C | 93% | 1018.2 hPa | 0 mm | - | - | - |
| 1777371016 | 20° C | 92% | 1017.9 hPa | 0 mm | - | - | - |
| 1777369816 | 20° C | 92% | 1017.7 hPa | 0 mm | - | - | - |
| 1777356616 | 21.67° C | 85% | 1018.1 hPa | 0 mm | - | - | - |
| 1777355416 | 21.67° C | 85% | 1018.2 hPa | 0 mm | - | - | - |
| 1777354816 | 22.22° C | 84% | 1018.3 hPa | 0 mm | - | - | - |
| 1777353036 | 22.22° C | 83% | 1018.3 hPa | 0 mm | - | - | - |
| 1777350016 | 22.78° C | 81% | 1018.5 hPa | 0 mm | - | - | - |
| 1777348816 | 22.78° C | 80% | 1018.4 hPa | 0 mm | - | - | - |
| 1777347036 | 23.33° C | 79% | 1018.4 hPa | 0 mm | - | - | - |
| 1777341615 | 25° C | 76% | 1017.7 hPa | 0 mm | - | - | - |
| 1777339215 | 25.56° C | 73% | 1017.1 hPa | 0 mm | - | - | - |
| 1777338615 | 26.11° C | 72% | 1017 hPa | 0 mm | - | - | - |
| 1777337415 | 26.11° C | 71% | 1016.7 hPa | 0 mm | - | - | - |
| 1777332016 | 28.89° C | 64% | 1015.2 hPa | 0 mm | - | - | - |
| 1777329015 | 28.33° C | 75% | 1014.6 hPa | 0 mm | - | - | - |
| 1777326015 | 28.33° C | 75% | 1014.4 hPa | 0 mm | - | - | - |
| 1777322435 | 29.44° C | 73% | 1014.3 hPa | 0 mm | - | - | - |
| 1777320615 | 30° C | 73% | 1014.4 hPa | 0 mm | - | - | - |
| 1777318215 | 31.67° C | 58% | 1014.7 hPa | 0 mm | - | - | - |
| 1777317615 | 31.67° C | 58% | 1014.8 hPa | 0 mm | - | - | - |
* Rain latest hour (hover to see other rain measurements)
** Current wind speed in m/s (hover to see current wind gust speed)